createdAt,value
2022-12-16T00:02:01.139Z,-0.20
2022-12-16T00:04:27.914Z,-0.21
2022-12-16T00:06:54.336Z,-0.16
2022-12-16T00:09:21.232Z,-0.12
2022-12-16T00:11:47.679Z,-0.27
2022-12-16T00:14:14.168Z,-0.10
2022-12-16T00:16:40.584Z,-0.13
2022-12-16T00:19:07.247Z,-0.13
2022-12-16T00:21:33.667Z,-0.14
2022-12-16T00:24:00.075Z,-0.14
2022-12-16T00:26:26.590Z,-0.17
2022-12-16T00:28:52.981Z,-0.17
2022-12-16T00:31:21.855Z,-0.17
2022-12-16T00:33:52.879Z,-0.12
2022-12-16T00:36:19.350Z,-0.12
2022-12-16T00:38:45.727Z,-0.16
2022-12-16T00:41:12.309Z,-0.15
2022-12-16T00:43:38.901Z,-0.13
2022-12-16T00:46:05.603Z,-0.13
2022-12-16T00:48:32.004Z,-0.12
2022-12-16T00:50:58.529Z,-0.10
2022-12-16T00:53:25.249Z,-0.14
2022-12-16T00:56:01.007Z,-0.15
2022-12-16T00:58:27.427Z,-0.16
2022-12-16T01:00:53.894Z,-0.18
2022-12-16T01:03:22.137Z,-0.25
2022-12-16T01:05:49.295Z,-0.25
2022-12-16T01:08:16.075Z,-0.28
2022-12-16T01:10:42.554Z,-0.20
2022-12-16T01:13:09.114Z,-0.25
2022-12-16T01:15:37.608Z,-0.25
2022-12-16T01:18:04.651Z,-0.34
2022-12-16T01:20:33.046Z,-0.45
2022-12-16T01:22:59.438Z,-0.46
2022-12-16T01:25:26.563Z,-0.52
2022-12-16T01:27:52.993Z,-0.49
2022-12-16T01:30:19.380Z,-0.52
2022-12-16T01:32:45.827Z,-0.53
2022-12-16T01:35:43.779Z,-0.62
2022-12-16T01:37:59.614Z,-0.65
2022-12-16T01:40:26.167Z,-0.66
2022-12-16T01:42:52.582Z,-0.65
2022-12-16T01:45:37.810Z,-0.71
2022-12-16T01:48:21.199Z,-0.66
2022-12-16T01:50:49.703Z,-0.67
2022-12-16T01:53:16.427Z,-0.68
2022-12-16T01:55:48.534Z,-0.68
2022-12-16T01:58:23.848Z,-0.77
2022-12-16T02:00:50.798Z,-0.78
2022-12-16T02:03:17.591Z,-0.77
2022-12-16T02:05:45.868Z,-0.74
2022-12-16T02:08:15.007Z,-0.75
2022-12-16T02:10:44.247Z,-0.77
2022-12-16T02:13:46.852Z,-0.77
2022-12-16T02:16:19.066Z,-0.74
2022-12-16T02:19:10.993Z,-0.75
2022-12-16T02:21:37.390Z,-0.76
2022-12-16T02:24:56.164Z,-0.76
2022-12-16T02:27:44.060Z,-0.82
2022-12-16T02:30:22.891Z,-0.88
2022-12-16T02:32:55.454Z,-0.89
2022-12-16T02:35:56.894Z,-0.92
2022-12-16T02:38:39.729Z,-0.93
2022-12-16T02:41:28.446Z,-0.96
2022-12-16T02:43:59.185Z,-0.97
2022-12-16T02:46:28.505Z,-0.98
2022-12-16T02:48:55.049Z,-0.98
2022-12-16T02:51:25.722Z,-1.02
2022-12-16T02:53:55.579Z,-1.06
2022-12-16T02:56:43.103Z,-1.06
2022-12-16T02:59:18.751Z,-1.04
2022-12-16T03:01:57.242Z,-1.06
2022-12-16T03:04:49.715Z,-1.13
2022-12-16T03:07:19.332Z,-1.16
2022-12-16T03:09:47.195Z,-1.17
2022-12-16T03:12:16.476Z,-1.30
2022-12-16T03:14:48.432Z,-1.25
2022-12-16T03:17:16.743Z,-1.24
2022-12-16T03:19:54.721Z,-1.33
2022-12-16T03:22:26.006Z,-1.26
2022-12-16T03:24:52.480Z,-1.25
2022-12-16T03:27:32.125Z,-1.22
2022-12-16T03:30:09.646Z,-1.20
2022-12-16T03:32:44.249Z,-1.17
2022-12-16T03:35:16.250Z,-1.21
2022-12-16T03:37:46.454Z,-1.24
2022-12-16T03:40:14.344Z,-1.25
2022-12-16T03:42:43.273Z,-1.27
2022-12-16T03:45:15.360Z,-1.28
2022-12-16T03:47:42.259Z,-1.37
2022-12-16T03:50:09.128Z,-1.31
2022-12-16T03:52:36.212Z,-1.31
2022-12-16T03:55:02.829Z,-1.33
2022-12-16T03:57:29.493Z,-1.30
2022-12-16T03:59:55.925Z,-1.25
2022-12-16T04:02:22.486Z,-1.25
2022-12-16T04:04:49.105Z,-1.25
2022-12-16T04:07:21.428Z,-1.23
2022-12-16T04:09:49.457Z,-1.23
2022-12-16T04:12:34.551Z,-1.24
2022-12-16T04:15:20.021Z,-1.22
2022-12-16T04:18:04.882Z,-1.22
2022-12-16T04:20:56.739Z,-1.24
2022-12-16T04:23:57.844Z,-1.27
2022-12-16T04:26:24.295Z,-1.22
2022-12-16T04:28:50.676Z,-1.23
2022-12-16T04:31:17.203Z,-1.20
2022-12-16T04:34:02.376Z,-1.25
2022-12-16T04:36:47.222Z,-1.21
2022-12-16T04:39:31.990Z,-1.27
2022-12-16T04:42:16.986Z,-1.22
2022-12-16T04:45:02.313Z,-1.25
2022-12-16T04:47:47.133Z,-1.26
2022-12-16T04:50:32.094Z,-1.26
2022-12-16T04:53:16.801Z,-1.28
2022-12-16T04:56:04.484Z,-1.26
2022-12-16T04:58:50.333Z,-1.26
2022-12-16T05:01:35.403Z,-1.26
2022-12-16T05:04:20.506Z,-1.28
2022-12-16T05:07:05.283Z,-1.26
2022-12-16T05:09:50.266Z,-1.28
2022-12-16T05:12:35.122Z,-1.30
2022-12-16T05:15:20.103Z,-1.29
2022-12-16T05:18:04.972Z,-1.33
2022-12-16T05:20:49.873Z,-1.35
2022-12-16T05:23:35.242Z,-1.35
2022-12-16T05:26:20.418Z,-1.37
2022-12-16T05:29:05.305Z,-1.36
2022-12-16T05:31:50.042Z,-1.31
2022-12-16T05:34:34.905Z,-1.33
2022-12-16T05:37:19.711Z,-1.31
2022-12-16T05:40:04.518Z,-1.33
2022-12-16T05:42:49.383Z,-1.34
2022-12-16T05:45:34.242Z,-1.33
2022-12-16T05:48:19.157Z,-1.36
2022-12-16T05:51:03.942Z,-1.36
2022-12-16T05:53:48.988Z,-1.36
2022-12-16T05:56:33.789Z,-1.36
2022-12-16T05:59:19.217Z,-1.32
2022-12-16T06:02:04.240Z,-1.31
2022-12-16T06:04:49.519Z,-1.38
2022-12-16T06:07:34.389Z,-1.34
2022-12-16T06:10:19.205Z,-1.40
2022-12-16T06:13:07.290Z,-1.41
2022-12-16T06:15:52.165Z,-1.42
2022-12-16T06:18:37.372Z,-1.40
2022-12-16T06:21:22.853Z,-1.47
2022-12-16T06:24:07.733Z,-1.45
2022-12-16T06:26:52.590Z,-1.44
2022-12-16T06:29:37.264Z,-1.44
2022-12-16T06:32:22.498Z,-1.45
2022-12-16T06:35:07.300Z,-1.47
2022-12-16T06:37:52.130Z,-1.49
2022-12-16T06:40:36.913Z,-1.53
2022-12-16T06:43:21.917Z,-1.58
2022-12-16T06:46:07.005Z,-1.59
2022-12-16T06:48:51.914Z,-1.64
2022-12-16T06:51:36.816Z,-1.65
2022-12-16T06:54:21.565Z,-1.67
2022-12-16T06:57:06.372Z,-1.64
2022-12-16T06:59:51.022Z,-1.64
2022-12-16T07:02:35.983Z,-1.63
2022-12-16T07:05:21.089Z,-1.73
2022-12-16T07:08:10.024Z,-1.75
2022-12-16T07:11:00.362Z,-1.71
2022-12-16T07:13:54.122Z,-1.72
2022-12-16T07:16:39.181Z,-1.71
2022-12-16T07:19:24.260Z,-1.74
2022-12-16T07:22:09.205Z,-1.70
2022-12-16T07:24:53.953Z,-1.79
2022-12-16T07:27:38.801Z,-1.76
2022-12-16T07:30:24.246Z,-1.72
2022-12-16T07:33:09.463Z,-1.68
2022-12-16T07:35:54.320Z,-1.65
2022-12-16T07:38:39.125Z,-1.63
2022-12-16T07:41:44.386Z,-1.60
2022-12-16T07:44:29.732Z,-1.58
2022-12-16T07:47:14.396Z,-1.62
2022-12-16T07:50:19.437Z,-1.63
2022-12-16T07:53:04.522Z,-1.66
2022-12-16T07:55:49.112Z,-1.61
2022-12-16T07:58:33.861Z,-1.60
2022-12-16T08:01:19.846Z,-1.60
2022-12-16T08:04:05.221Z,-1.57
2022-12-16T08:06:50.434Z,-1.54
2022-12-16T08:09:35.615Z,-1.52
2022-12-16T08:12:20.563Z,-1.49
2022-12-16T08:15:05.388Z,-1.43
2022-12-16T08:17:50.185Z,-1.40
2022-12-16T08:20:37.603Z,-1.38
2022-12-16T08:23:22.944Z,-1.34
2022-12-16T08:26:08.084Z,-1.33
2022-12-16T08:28:53.870Z,-1.35
2022-12-16T08:31:38.633Z,-1.32
2022-12-16T08:34:23.443Z,-1.35
2022-12-16T08:37:08.567Z,-1.33
2022-12-16T08:40:17.576Z,-1.32
2022-12-16T08:42:58.745Z,-1.38
2022-12-16T08:45:44.010Z,-1.36
2022-12-16T08:48:29.093Z,-1.33
2022-12-16T08:51:14.460Z,-1.32
2022-12-16T08:53:59.880Z,-1.35
2022-12-16T08:56:44.632Z,-1.35
2022-12-16T08:59:29.562Z,-1.43
2022-12-16T09:02:14.493Z,-1.38
2022-12-16T09:04:59.885Z,-1.38
2022-12-16T09:07:45.074Z,-1.46
2022-12-16T09:10:32.278Z,-1.34
2022-12-16T09:13:28.950Z,-1.32
2022-12-16T09:16:17.681Z,-1.25
2022-12-16T09:19:04.522Z,-1.14
2022-12-16T09:21:49.849Z,-1.13
2022-12-16T09:24:34.652Z,-1.07
2022-12-16T09:27:19.909Z,-1.06
2022-12-16T09:30:05.028Z,-1.00
2022-12-16T09:32:49.982Z,-0.96
2022-12-16T09:35:35.372Z,-0.89
2022-12-16T09:38:20.384Z,-0.85
2022-12-16T09:41:05.179Z,-0.79
2022-12-16T09:44:25.405Z,-0.81
2022-12-16T09:47:31.056Z,-0.70
2022-12-16T09:50:15.955Z,-0.67
2022-12-16T09:53:06.996Z,-0.63
2022-12-16T09:55:56.824Z,-0.49
2022-12-16T09:58:45.215Z,-0.47
2022-12-16T10:01:32.181Z,-0.43
2022-12-16T10:04:17.361Z,-0.46
2022-12-16T10:07:08.098Z,-0.47
2022-12-16T10:10:11.805Z,-0.45
2022-12-16T10:13:02.834Z,-0.45
2022-12-16T10:15:57.517Z,-0.39
2022-12-16T10:18:59.135Z,-0.43
2022-12-16T10:21:54.775Z,-0.49
2022-12-16T10:24:55.772Z,-0.47
2022-12-16T10:28:03.963Z,-0.53
2022-12-16T10:30:51.391Z,-0.47
2022-12-16T10:33:38.909Z,-0.46
2022-12-16T10:36:31.643Z,-0.52
2022-12-16T10:39:21.424Z,-0.51
2022-12-16T10:42:10.119Z,-0.48
2022-12-16T10:45:18.442Z,-0.52
2022-12-16T10:48:03.197Z,-0.56
2022-12-16T10:50:48.018Z,-0.48
2022-12-16T10:53:41.817Z,-0.33
2022-12-16T10:57:08.860Z,-0.25
2022-12-16T10:59:59.134Z,-0.16
2022-12-16T11:02:47.309Z,0.00
2022-12-16T11:05:51.977Z,0.10
2022-12-16T11:08:45.013Z,0.09
2022-12-16T11:11:47.346Z,0.16
2022-12-16T11:15:05.739Z,0.17
2022-12-16T11:17:49.242Z,0.21
2022-12-16T11:20:39.591Z,0.25
2022-12-16T11:23:31.362Z,0.28
2022-12-16T11:26:37.041Z,0.27
2022-12-16T11:29:22.722Z,0.16
2022-12-16T11:32:13.475Z,0.17
2022-12-16T11:35:00.400Z,0.19
2022-12-16T11:37:47.804Z,0.14
2022-12-16T11:40:35.551Z,0.07
2022-12-16T11:43:24.312Z,0.09
2022-12-16T11:46:11.295Z,-0.04
2022-12-16T11:49:23.468Z,-0.03
2022-12-16T11:52:35.972Z,-0.01
2022-12-16T11:56:11.164Z,0.10
2022-12-16T11:59:03.982Z,-0.03
2022-12-16T12:01:51.181Z,-0.06
2022-12-16T12:04:36.333Z,-0.04
2022-12-16T12:07:45.594Z,-0.01
2022-12-16T12:10:43.413Z,-0.01
2022-12-16T12:13:54.659Z,-0.02
2022-12-16T12:17:12.111Z,0.02
2022-12-16T12:20:31.095Z,-0.03
2022-12-16T12:23:24.592Z,-0.07
2022-12-16T12:26:30.331Z,-0.22
2022-12-16T12:29:40.137Z,-0.38
2022-12-16T12:32:54.802Z,-0.42
2022-12-16T12:36:19.355Z,-0.38
2022-12-16T12:39:23.744Z,-0.40
2022-12-16T12:42:36.249Z,-0.55
2022-12-16T12:46:08.464Z,-0.56
2022-12-16T12:48:59.499Z,-0.66
2022-12-16T12:51:54.232Z,-0.69
2022-12-16T12:54:48.108Z,-0.68
2022-12-16T12:57:36.874Z,-0.75
2022-12-16T13:00:38.713Z,-0.75
2022-12-16T13:03:52.394Z,-0.75
2022-12-16T13:06:39.192Z,-0.75
2022-12-16T13:09:47.120Z,-0.74
2022-12-16T13:12:31.906Z,-0.78
2022-12-16T13:15:25.976Z,-0.81
2022-12-16T13:18:19.995Z,-0.84
2022-12-16T13:21:43.794Z,-0.94
2022-12-16T13:24:53.190Z,-0.96
2022-12-16T13:27:38.783Z,-1.01
2022-12-16T13:30:39.672Z,-1.06
2022-12-16T13:33:40.115Z,-1.05
2022-12-16T13:36:25.932Z,-1.04
2022-12-16T13:39:13.825Z,-1.03
2022-12-16T13:41:58.777Z,-1.05
2022-12-16T13:45:02.037Z,-1.07
2022-12-16T13:47:51.245Z,-1.12
2022-12-16T13:50:55.198Z,-1.12
2022-12-16T13:53:44.273Z,-1.15
2022-12-16T13:56:33.601Z,-1.17
2022-12-16T13:59:24.001Z,-1.15
2022-12-16T14:02:13.236Z,-1.18
2022-12-16T14:05:08.587Z,-1.23
2022-12-16T14:07:57.340Z,-1.27
2022-12-16T14:10:48.518Z,-1.27
2022-12-16T14:13:41.178Z,-1.30
2022-12-16T14:16:32.356Z,-1.32
2022-12-16T14:19:34.060Z,-1.33
2022-12-16T14:22:24.124Z,-1.35
2022-12-16T14:25:09.487Z,-1.36
2022-12-16T14:27:54.442Z,-1.38
2022-12-16T14:30:43.299Z,-1.34
2022-12-16T14:33:35.530Z,-1.34
2022-12-16T14:36:21.020Z,-1.39
2022-12-16T14:39:07.891Z,-1.41
2022-12-16T14:41:53.442Z,-1.42
2022-12-16T14:44:43.236Z,-1.43
2022-12-16T14:47:39.361Z,-1.51
2022-12-16T14:50:46.114Z,-1.45
2022-12-16T14:53:40.300Z,-1.43
2022-12-16T14:56:35.270Z,-1.43
2022-12-16T14:59:32.337Z,-1.47
2022-12-16T15:02:31.147Z,-1.53
2022-12-16T15:05:16.691Z,-1.50
2022-12-16T15:08:01.797Z,-1.48
2022-12-16T15:10:47.171Z,-1.46
2022-12-16T15:13:36.920Z,-1.47
2022-12-16T15:16:24.345Z,-1.48
2022-12-16T15:19:17.682Z,-1.54
2022-12-16T15:22:03.181Z,-1.57
2022-12-16T15:24:53.908Z,-1.53
2022-12-16T15:27:51.787Z,-1.57
2022-12-16T15:31:04.589Z,-1.57
2022-12-16T15:33:56.234Z,-1.55
2022-12-16T15:36:41.196Z,-1.59
2022-12-16T15:39:50.415Z,-1.64
2022-12-16T15:42:43.376Z,-1.64
2022-12-16T15:45:56.182Z,-1.61
2022-12-16T15:48:44.296Z,-1.58
2022-12-16T15:51:47.888Z,-1.58
2022-12-16T15:54:41.319Z,-1.55
2022-12-16T15:57:44.801Z,-1.64
2022-12-16T16:00:55.893Z,-1.54
2022-12-16T16:03:45.808Z,-1.56
2022-12-16T16:06:40.164Z,-1.57
2022-12-16T16:09:38.429Z,-1.63
2022-12-16T16:12:23.178Z,-1.68
2022-12-16T16:15:07.928Z,-1.67
2022-12-16T16:17:52.748Z,-1.68
2022-12-16T16:20:39.521Z,-1.62
2022-12-16T16:23:24.242Z,-1.62
2022-12-16T16:26:09.216Z,-1.63
2022-12-16T16:28:54.044Z,-1.65
2022-12-16T16:31:38.878Z,-1.66
2022-12-16T16:34:24.106Z,-1.64
2022-12-16T16:37:13.064Z,-1.67
2022-12-16T16:39:58.500Z,-1.72
2022-12-16T16:42:43.688Z,-1.75
2022-12-16T16:45:29.553Z,-1.78
2022-12-16T16:48:29.860Z,-1.77
2022-12-16T16:51:16.151Z,-1.75
2022-12-16T16:54:15.639Z,-1.74
2022-12-16T16:57:00.553Z,-1.77
2022-12-16T16:59:45.409Z,-1.74
2022-12-16T17:02:40.858Z,-1.75
2022-12-16T17:05:28.277Z,-1.75
2022-12-16T17:08:13.755Z,-1.80
2022-12-16T17:10:58.616Z,-1.81
2022-12-16T17:13:43.474Z,-1.83
2022-12-16T17:16:32.710Z,-1.86
2022-12-16T17:19:18.025Z,-1.87
2022-12-16T17:22:02.920Z,-1.92
2022-12-16T17:24:51.425Z,-1.84
2022-12-16T17:27:42.007Z,-1.81
2022-12-16T17:30:36.009Z,-1.80
2022-12-16T17:33:21.755Z,-1.87
2022-12-16T17:36:08.269Z,-1.83
2022-12-16T17:38:57.768Z,-1.86
2022-12-16T17:41:43.021Z,-1.88
2022-12-16T17:44:28.514Z,-1.90
2022-12-16T17:47:13.352Z,-1.98
2022-12-16T17:49:58.347Z,-2.03
2022-12-16T17:52:43.364Z,-2.05
2022-12-16T17:55:28.699Z,-2.08
2022-12-16T17:58:13.743Z,-2.11
2022-12-16T18:00:58.993Z,-2.09
2022-12-16T18:03:44.031Z,-2.04
2022-12-16T18:06:29.119Z,-2.03
2022-12-16T18:09:14.018Z,-2.04
2022-12-16T18:11:58.900Z,-2.03
2022-12-16T18:14:43.730Z,-2.04
2022-12-16T18:17:28.491Z,-2.05
2022-12-16T18:20:13.447Z,-2.08
2022-12-16T18:22:58.543Z,-2.05
2022-12-16T18:25:43.496Z,-2.03
2022-12-16T18:28:28.930Z,-2.00
2022-12-16T18:31:13.802Z,-2.00
2022-12-16T18:33:59.145Z,-2.04
2022-12-16T18:36:44.449Z,-2.03
2022-12-16T18:39:29.303Z,-2.04
2022-12-16T18:42:14.206Z,-2.03
2022-12-16T18:45:01.271Z,-2.01
2022-12-16T18:47:46.960Z,-2.00
2022-12-16T18:50:37.269Z,-2.01
2022-12-16T18:53:23.855Z,-2.04
2022-12-16T18:56:18.319Z,-2.07
2022-12-16T18:59:03.162Z,-2.06
2022-12-16T19:01:48.090Z,-2.16
2022-12-16T19:04:33.142Z,-2.18
2022-12-16T19:07:18.542Z,-2.25
2022-12-16T19:10:03.486Z,-2.31
2022-12-16T19:12:59.146Z,-2.35
2022-12-16T19:15:43.887Z,-2.39
2022-12-16T19:18:30.441Z,-2.45
2022-12-16T19:21:16.142Z,-2.49
2022-12-16T19:24:01.777Z,-2.52
2022-12-16T19:26:46.615Z,-2.57
2022-12-16T19:29:31.375Z,-2.62
2022-12-16T19:32:16.302Z,-2.62
2022-12-16T19:35:01.467Z,-2.64
2022-12-16T19:37:46.278Z,-2.65
2022-12-16T19:40:31.069Z,-2.70
2022-12-16T19:43:15.926Z,-2.72
2022-12-16T19:46:00.842Z,-2.72
2022-12-16T19:48:45.961Z,-2.69
2022-12-16T19:51:30.937Z,-2.72
2022-12-16T19:54:15.682Z,-2.72
2022-12-16T19:57:00.628Z,-2.73
2022-12-16T19:59:45.515Z,-2.77
2022-12-16T20:02:31.229Z,-2.81
2022-12-16T20:05:16.787Z,-2.90
2022-12-16T20:08:01.702Z,-2.88
2022-12-16T20:10:46.609Z,-2.85
2022-12-16T20:13:31.893Z,-2.87
2022-12-16T20:16:24.329Z,-2.89
2022-12-16T20:19:09.824Z,-2.89
2022-12-16T20:21:56.448Z,-2.90
2022-12-16T20:24:42.796Z,-2.89
2022-12-16T20:27:28.600Z,-2.92
2022-12-16T20:30:13.953Z,-2.92
2022-12-16T20:32:59.479Z,-2.97
2022-12-16T20:35:44.236Z,-3.00
2022-12-16T20:38:29.187Z,-3.11
2022-12-16T20:41:16.221Z,-3.09
2022-12-16T20:44:01.031Z,-3.14
2022-12-16T20:46:47.487Z,-3.15
2022-12-16T20:49:32.967Z,-3.15
2022-12-16T20:52:17.781Z,-3.16
2022-12-16T20:55:02.542Z,-3.16
2022-12-16T20:57:47.391Z,-3.19
2022-12-16T21:00:32.877Z,-3.18
2022-12-16T21:03:17.782Z,-3.19
2022-12-16T21:06:03.064Z,-3.18
2022-12-16T21:08:48.027Z,-3.17
2022-12-16T21:11:32.830Z,-3.17
2022-12-16T21:14:17.653Z,-3.15
2022-12-16T21:17:02.434Z,-3.12
2022-12-16T21:19:47.376Z,-3.10
2022-12-16T21:22:32.150Z,-3.08
2022-12-16T21:25:22.759Z,-3.11
2022-12-16T21:28:09.717Z,-3.16
2022-12-16T21:31:05.245Z,-3.18
2022-12-16T21:33:50.274Z,-3.26
2022-12-16T21:36:35.541Z,-3.28
2022-12-16T21:39:20.897Z,-3.39
2022-12-16T21:42:05.636Z,-3.31
2022-12-16T21:44:50.488Z,-3.30
2022-12-16T21:47:35.230Z,-3.30
2022-12-16T21:50:20.593Z,-3.32
2022-12-16T21:53:06.522Z,-3.30
2022-12-16T21:55:51.341Z,-3.39
2022-12-16T21:58:37.292Z,-3.28
2022-12-16T22:01:23.167Z,-3.27
2022-12-16T22:04:08.344Z,-3.21
2022-12-16T22:06:54.763Z,-3.14
2022-12-16T22:09:40.118Z,-3.13
2022-12-16T22:12:25.537Z,-3.13
2022-12-16T22:15:10.337Z,-3.14
2022-12-16T22:17:58.596Z,-3.17
2022-12-16T22:20:44.245Z,-3.19
2022-12-16T22:23:29.147Z,-3.23
2022-12-16T22:26:18.995Z,-3.27
2022-12-16T22:29:04.514Z,-3.35
2022-12-16T22:31:49.827Z,-3.42
2022-12-16T22:34:34.746Z,-3.46
2022-12-16T22:37:19.613Z,-3.52
2022-12-16T22:40:04.582Z,-3.60
2022-12-16T22:42:49.546Z,-3.67
2022-12-16T22:45:34.748Z,-3.71
2022-12-16T22:48:19.712Z,-3.83
2022-12-16T22:51:04.528Z,-3.87
2022-12-16T22:53:49.440Z,-3.91
2022-12-16T22:56:34.497Z,-3.99
2022-12-16T22:59:19.323Z,-4.06
2022-12-16T23:02:04.087Z,-4.19
2022-12-16T23:04:49.229Z,-4.33
2022-12-16T23:07:34.474Z,-4.42
2022-12-16T23:10:19.288Z,-4.45
2022-12-16T23:13:20.880Z,-4.46
2022-12-16T23:16:05.967Z,-4.48
2022-12-16T23:18:50.846Z,-4.54
2022-12-16T23:21:38.163Z,-4.51
2022-12-16T23:24:23.391Z,-4.56
2022-12-16T23:27:08.586Z,-4.60
2022-12-16T23:29:56.625Z,-4.58
2022-12-16T23:32:42.642Z,-4.54
2022-12-16T23:35:28.120Z,-4.52
2022-12-16T23:38:24.415Z,-4.51
2022-12-16T23:41:16.438Z,-4.53
2022-12-16T23:44:02.310Z,-4.42
2022-12-16T23:46:47.622Z,-4.38
2022-12-16T23:49:32.854Z,-4.30
2022-12-16T23:52:17.800Z,-4.25
2022-12-16T23:55:02.741Z,-4.24
2022-12-16T23:57:47.796Z,-4.21
